Time;durP1;ratioP1;P1;durP2;ratioP2;P2;SDS_P1;SDS_P2;PMS_P1;PMS_P2;Temp;Humidity;BMP_temperature;BMP_pressure;BME280_temperature;BME280_humidity;BME280_pressure;Samples;Min_cycle;Max_cycle;Signal;HPM_P1;HPM_P2
2022/01/03 00:00:31;;;;;;;6.35;2.10;;;9.30;99.90;;;;;;5110700;28;20046;-75
2022/01/03 00:02:59;;;;;;;10.23;2.60;;;9.30;99.90;;;;;;5113123;28;20416;-75
2022/01/03 00:05:26;;;;;;;10.15;2.67;;;9.30;99.90;;;;;;5104149;28;20044;-75
2022/01/03 00:07:52;;;;;;;9.52;3.15;;;9.40;99.90;;;;;;5113072;28;20108;-75
2022/01/03 00:10:19;;;;;;;9.55;2.75;;;9.30;99.90;;;;;;5112128;28;20123;-75
2022/01/03 00:12:45;;;;;;;8.77;2.75;;;9.40;99.90;;;;;;5113394;28;20055;-75
2022/01/03 00:15:14;;;;;;;10.90;2.90;;;9.40;99.90;;;;;;5111026;28;20119;-75
2022/01/03 00:17:40;;;;;;;8.98;3.15;;;9.40;99.90;;;;;;5112995;28;20511;-76
2022/01/03 00:20:08;;;;;;;11.52;3.50;;;9.50;99.90;;;;;;5096874;28;20518;-75
2022/01/03 00:22:48;;;;;;;12.13;3.58;;;9.50;99.90;;;;;;5092778;28;20047;-75
2022/01/03 00:25:16;;;;;;;14.10;3.90;;;9.50;99.90;;;;;;5092570;28;20040;-75
2022/01/03 00:28:17;;;;;;;11.85;3.38;;;9.60;99.90;;;;;;5092769;28;20525;-75
2022/01/03 00:30:44;;;;;;;13.43;3.00;;;9.60;99.90;;;;;;5060191;28;20495;-75
2022/01/03 00:33:11;;;;;;;12.75;3.03;;;9.60;99.90;;;;;;5073447;28;20128;-75
2022/01/03 00:35:40;;;;;;;15.85;3.22;;;9.60;99.90;;;;;;5093724;28;20040;-74
2022/01/03 00:38:08;;;;;;;12.18;3.50;;;9.70;99.90;;;;;;5091925;28;20067;-74
2022/01/03 00:40:35;;;;;;;10.75;2.67;;;9.80;99.90;;;;;;5071489;28;20048;-75
2022/01/03 00:43:02;;;;;;;10.95;2.63;;;9.80;99.90;;;;;;5071904;28;20046;-72
2022/01/03 00:45:27;;;;;;;14.60;3.47;;;9.80;99.90;;;;;;5090457;28;20044;-74
2022/01/03 00:47:54;;;;;;;13.20;2.95;;;9.80;99.90;;;;;;5092714;28;20050;-75
2022/01/03 00:50:22;;;;;;;11.02;3.10;;;9.80;99.90;;;;;;5108949;28;20043;-75
2022/01/03 00:52:49;;;;;;;9.18;2.50;;;9.90;99.90;;;;;;5113011;28;20051;-75
2022/01/03 00:55:16;;;;;;;12.27;3.00;;;9.80;99.90;;;;;;5096239;28;20071;-75
2022/01/03 00:57:42;;;;;;;11.40;3.00;;;9.80;99.90;;;;;;5092827;28;20397;-74
2022/01/03 01:00:09;;;;;;;10.00;2.53;;;9.80;99.90;;;;;;5102267;28;20047;-74
2022/01/03 01:02:43;;;;;;;13.27;3.97;;;9.90;99.90;;;;;;5092503;28;20048;-75
2022/01/03 01:05:08;;;;;;;12.45;3.17;;;9.80;99.90;;;;;;5107553;28;20050;-74
2022/01/03 01:07:35;;;;;;;11.38;2.83;;;9.90;99.90;;;;;;5112759;28;20404;-75
2022/01/03 01:10:04;;;;;;;11.98;3.22;;;9.90;99.90;;;;;;5095481;28;20043;-72
2022/01/03 01:12:31;;;;;;;13.68;3.08;;;9.90;99.90;;;;;;5095122;28;20117;-75
2022/01/03 01:14:57;;;;;;;13.77;3.50;;;9.80;99.90;;;;;;5111474;28;20050;-75
2022/01/03 01:17:27;;;;;;;13.65;3.60;;;9.80;99.90;;;;;;5116126;28;20055;-74
2022/01/03 01:19:54;;;;;;;11.82;3.47;;;9.80;99.90;;;;;;5102307;28;20105;-74
2022/01/03 01:22:21;;;;;;;14.30;3.50;;;9.90;99.90;;;;;;5095657;28;20079;-74
2022/01/03 01:24:58;;;;;;;11.50;2.58;;;9.90;99.90;;;;;;5105904;28;20543;-76
2022/01/03 01:30:10;;;;;;;13.57;2.95;;;9.90;99.90;;;;;;5110981;28;20086;-75
2022/01/03 01:32:42;;;;;;;13.60;3.25;;;9.90;99.90;;;;;;5116323;28;20055;-75
2022/01/03 01:35:09;;;;;;;13.43;2.75;;;9.90;99.90;;;;;;5096690;28;20123;-73
2022/01/03 01:37:38;;;;;;;11.50;2.67;;;9.90;99.90;;;;;;5095929;28;20396;-75
2022/01/03 01:40:04;;;;;;;12.43;3.10;;;10.00;99.90;;;;;;5113304;28;20097;-76
2022/01/03 01:42:31;;;;;;;12.23;2.83;;;9.90;99.90;;;;;;5115373;28;20488;-75
2022/01/03 01:45:01;;;;;;;11.90;2.63;;;9.90;99.90;;;;;;5100756;28;20062;-76
2022/01/03 01:47:27;;;;;;;;;;;10.00;99.90;;;;;;5116035;28;20112;-75
2022/01/03 01:49:55;;;;;;;11.35;2.47;;;9.90;99.90;;;;;;5101108;28;19930;-76
2022/01/03 01:52:23;;;;;;;10.27;2.83;;;9.90;99.90;;;;;;5095097;28;20044;-75
2022/01/03 01:54:56;;;;;;;10.70;2.90;;;9.90;99.90;;;;;;5109715;28;20082;-75
2022/01/03 01:57:42;;;;;;;11.48;3.08;;;10.00;99.90;;;;;;5115519;28;20130;-75
2022/01/03 02:00:12;;;;;;;9.63;2.25;;;10.00;99.90;;;;;;5096974;28;20046;-72
2022/01/03 02:02:49;;;;;;;11.75;2.85;;;9.90;99.90;;;;;;5095438;28;20469;-75
2022/01/03 02:05:22;;;;;;;10.55;2.50;;;9.90;99.90;;;;;;5074733;28;20087;-75
2022/01/03 02:08:07;;;;;;;11.25;2.65;;;9.90;99.90;;;;;;5075146;28;20060;-75
2022/01/03 02:10:39;;;;;;;14.23;3.47;;;9.90;99.90;;;;;;5115013;28;20126;-76
2022/01/03 02:13:06;;;;;;;11.02;2.67;;;9.90;99.90;;;;;;5113842;28;20043;-74
2022/01/03 02:15:32;;;;;;;9.88;3.15;;;9.90;99.90;;;;;;5115049;28;20044;-76
2022/01/03 02:17:58;;;;;;;12.38;2.70;;;9.90;99.90;;;;;;5115261;28;20070;-76
2022/01/03 02:20:26;;;;;;;9.75;2.60;;;9.90;99.90;;;;;;5113446;28;20480;-75
2022/01/03 02:22:53;;;;;;;11.10;2.70;;;10.00;99.90;;;;;;5111988;28;20131;-75
2022/01/03 02:25:21;;;;;;;12.55;3.90;;;9.90;99.90;;;;;;5114675;28;20040;-76
2022/01/03 02:27:49;;;;;;;13.18;3.20;;;9.90;99.90;;;;;;5113243;28;20127;-77
2022/01/03 02:30:27;;;;;;;11.32;2.67;;;9.90;99.90;;;;;;5094291;28;20075;-72
2022/01/03 02:32:52;;;;;;;13.80;3.58;;;9.90;99.90;;;;;;5095960;28;20102;-75
2022/01/03 02:35:19;;;;;;;14.38;3.40;;;9.80;99.90;;;;;;5114692;28;20083;-76
2022/01/03 02:37:46;;;;;;;12.80;3.50;;;9.80;99.90;;;;;;5114819;28;20503;-73
2022/01/03 02:40:13;;;;;;;11.07;3.15;;;9.70;99.90;;;;;;5115052;28;20055;-76
2022/01/03 02:42:40;;;;;;;14.13;3.38;;;9.60;99.90;;;;;;5114698;28;20047;-75
2022/01/03 02:45:12;;;;;;;9.23;3.13;;;9.60;99.90;;;;;;5095819;28;20113;-75
2022/01/03 02:47:39;;;;;;;14.20;3.22;;;9.60;99.90;;;;;;5094092;28;20051;-76
2022/01/03 02:50:07;;;;;;;12.68;2.83;;;9.50;99.90;;;;;;5111869;28;20040;-76
2022/01/03 02:52:35;;;;;;;13.18;3.60;;;9.50;99.90;;;;;;5114265;28;20553;-75
2022/01/03 02:55:04;;;;;;;12.70;3.42;;;9.50;99.90;;;;;;5097002;28;20557;-75
2022/01/03 02:57:35;;;;;;;13.45;3.42;;;9.50;99.90;;;;;;5100954;28;20047;-76
2022/01/03 03:00:01;;;;;;;13.27;3.08;;;9.50;99.90;;;;;;5114758;28;20366;-76
2022/01/03 03:02:27;;;;;;;13.38;2.80;;;9.50;99.90;;;;;;5112396;28;20180;-75
2022/01/03 03:04:58;;;;;;;10.90;2.97;;;9.40;99.90;;;;;;5105135;28;20075;-76
2022/01/03 03:07:25;;;;;;;;;;;9.40;99.90;;;;;;5096822;28;20063;-75
2022/01/03 03:09:51;;;;;;;16.13;3.60;;;9.30;99.90;;;;;;5114496;28;20028;-76
2022/01/03 03:12:17;;;;;;;13.27;2.90;;;9.30;99.90;;;;;;5112513;28;20043;-75
2022/01/03 03:14:43;;;;;;;14.80;3.08;;;9.30;99.90;;;;;;5102247;28;20051;-76
2022/01/03 03:17:09;;;;;;;14.38;2.95;;;9.30;99.90;;;;;;5113966;28;20365;-75
2022/01/03 03:19:55;;;;;;;12.43;3.08;;;9.30;99.90;;;;;;5093459;28;20037;-76
2022/01/03 03:22:22;;;;;;;16.08;3.63;;;9.30;99.90;;;;;;5094225;28;20048;-72
2022/01/03 03:24:48;;;;;;;12.65;3.25;;;9.40;99.90;;;;;;5112452;28;20044;-75
2022/01/03 03:27:14;;;;;;;14.10;3.20;;;9.40;99.90;;;;;;5114362;28;20138;-75
2022/01/03 03:29:49;;;;;;;15.05;3.20;;;9.40;99.90;;;;;;5093227;28;20118;-76
2022/01/03 03:32:16;;;;;;;14.10;3.10;;;9.30;99.90;;;;;;5097093;28;20036;-75
2022/01/03 03:34:44;;;;;;;16.40;3.88;;;9.40;99.90;;;;;;5110923;28;20093;-77
2022/01/03 03:37:10;;;;;;;16.70;3.78;;;9.40;99.90;;;;;;5113807;28;20052;-76
2022/01/03 03:39:36;;;;;;;14.10;3.60;;;9.40;99.90;;;;;;5112078;28;20458;-76
2022/01/03 03:42:04;;;;;;;16.45;3.83;;;9.40;99.90;;;;;;5093566;28;20083;-75
2022/01/03 03:44:30;;;;;;;14.82;3.85;;;9.40;99.90;;;;;;5092885;28;20048;-74
2022/01/03 03:46:56;;;;;;;13.27;3.38;;;9.40;99.90;;;;;;5113050;28;20044;-76
2022/01/03 03:49:22;;;;;;;11.30;2.88;;;9.40;99.90;;;;;;5093598;28;20083;-75
2022/01/03 03:51:47;;;;;;;14.20;3.72;;;9.40;99.90;;;;;;5111011;28;20463;-75
2022/01/03 03:54:13;;;;;;;13.68;2.97;;;9.40;99.90;;;;;;5111623;28;20043;-75
2022/01/03 03:56:39;;;;;;;12.68;3.30;;;9.40;99.90;;;;;;5111272;28;20050;-75
2022/01/03 03:59:05;;;;;;;15.52;3.60;;;9.40;99.90;;;;;;5113352;28;20052;-76
2022/01/03 04:01:30;;;;;;;13.98;3.47;;;9.40;99.90;;;;;;5099119;28;20044;-76
2022/01/03 04:03:56;;;;;;;16.05;3.53;;;9.40;99.90;;;;;;5092889;28;20377;-75
2022/01/03 04:06:22;;;;;;;17.88;3.63;;;9.50;99.90;;;;;;5096474;28;20043;-75
2022/01/03 04:08:48;;;;;;;18.27;3.97;;;9.50;99.90;;;;;;5091058;28;20094;-76
2022/01/03 04:11:13;;;;;;;12.73;3.30;;;9.50;99.90;;;;;;5106499;28;20040;-76
2022/01/03 04:13:40;;;;;;;17.23;3.65;;;9.50;99.90;;;;;;5098355;28;20051;-75
2022/01/03 04:16:07;;;;;;;23.60;4.05;;;9.50;99.90;;;;;;5103604;28;20118;-75
2022/01/03 04:18:32;;;;;;;13.10;3.83;;;9.50;99.90;;;;;;5112792;28;20131;-76
2022/01/03 04:20:58;;;;;;;18.02;3.65;;;9.50;99.90;;;;;;5102968;28;20488;-76
2022/01/03 04:23:24;;;;;;;14.02;3.70;;;9.50;99.90;;;;;;5094067;28;20040;-75
2022/01/03 04:25:51;;;;;;;16.13;3.63;;;9.50;99.90;;;;;;5097965;28;20411;-75
2022/01/03 04:28:18;;;;;;;17.70;3.67;;;9.50;99.90;;;;;;5113135;28;20051;-75
2022/01/03 04:30:44;;;;;;;14.60;3.72;;;9.60;99.90;;;;;;5107745;28;20036;-75
2022/01/03 04:33:10;;;;;;;17.33;3.60;;;9.60;99.90;;;;;;5092783;28;20066;-76
2022/01/03 04:35:37;;;;;;;16.27;4.00;;;9.60;99.90;;;;;;5094603;28;20036;-76
2022/01/03 04:38:03;;;;;;;16.85;4.43;;;9.60;99.90;;;;;;5113085;28;20067;-75
2022/01/03 04:40:29;;;;;;;20.02;4.38;;;9.60;99.90;;;;;;5111838;28;20484;-74
2022/01/03 04:42:55;;;;;;;16.65;4.10;;;9.60;99.90;;;;;;5092325;28;20040;-75
2022/01/03 04:45:20;;;;;;;15.20;3.80;;;9.50;99.90;;;;;;5092624;28;20370;-76
2022/01/03 04:47:46;;;;;;;17.23;4.22;;;9.60;99.90;;;;;;5096068;28;20047;-75
2022/01/03 04:50:12;;;;;;;15.95;4.10;;;9.60;99.90;;;;;;5096778;28;20040;-76
2022/01/03 04:52:38;;;;;;;17.15;4.00;;;9.50;99.90;;;;;;5113808;28;20043;-76
2022/01/03 04:55:04;;;;;;;17.48;3.88;;;9.50;99.90;;;;;;5107995;28;20176;-75
2022/01/03 04:57:30;;;;;;;18.55;3.58;;;9.50;99.90;;;;;;5110598;28;20071;-76
2022/01/03 04:59:56;;;;;;;18.85;4.38;;;9.50;99.90;;;;;;5109161;28;20074;-75
2022/01/03 05:02:22;;;;;;;13.30;3.80;;;9.60;99.90;;;;;;5096634;28;20503;-75
2022/01/03 05:04:47;;;;;;;17.92;4.18;;;9.60;99.90;;;;;;5097047;28;20123;-76
2022/01/03 05:07:13;;;;;;;17.15;4.30;;;9.60;99.90;;;;;;5105456;28;20047;-76
2022/01/03 05:09:39;;;;;;;21.17;4.10;;;9.70;99.90;;;;;;5112631;28;20047;-75
2022/01/03 05:12:05;;;;;;;15.95;3.65;;;9.70;99.90;;;;;;5096432;28;20055;-75
2022/01/03 05:14:31;;;;;;;16.77;3.88;;;9.70;99.90;;;;;;5097682;28;20149;-76
2022/01/03 05:16:57;;;;;;;17.65;4.75;;;9.70;99.90;;;;;;5099332;28;20123;-76
2022/01/03 05:19:24;;;;;;;18.08;4.05;;;9.70;99.90;;;;;;5115905;28;20113;-77
2022/01/03 05:21:51;;;;;;;20.38;4.47;;;9.70;99.90;;;;;;5114039;28;20066;-76
2022/01/03 05:24:17;;;;;;;14.90;4.57;;;9.70;99.90;;;;;;5098491;28;20131;-77
2022/01/03 05:26:43;;;;;;;16.58;4.45;;;9.70;99.90;;;;;;5115479;28;20087;-76
2022/01/03 05:29:08;;;;;;;17.40;4.50;;;9.60;99.90;;;;;;5096119;28;20051;-76
2022/01/03 05:31:34;;;;;;;20.63;4.15;;;9.60;99.90;;;;;;5095974;28;20127;-76
2022/01/03 05:34:03;;;;;;;16.75;3.83;;;9.60;99.90;;;;;;5095889;28;20074;-76
2022/01/03 05:36:29;;;;;;;17.10;3.88;;;9.60;99.90;;;;;;5094846;28;20044;-76
2022/01/03 05:38:54;;;;;;;17.55;4.25;;;9.60;99.90;;;;;;5113340;28;20163;-75
2022/01/03 05:41:21;;;;;;;18.48;4.40;;;9.50;99.90;;;;;;5116242;28;20039;-75
2022/01/03 05:43:47;;;;;;;18.77;4.43;;;9.50;99.90;;;;;;5096591;28;20115;-76
2022/01/03 05:46:13;;;;;;;17.10;4.40;;;9.50;99.90;;;;;;5095827;28;20044;-76
2022/01/03 05:48:39;;;;;;;17.92;4.55;;;9.60;99.90;;;;;;5095747;28;20055;-72
2022/01/03 05:51:04;;;;;;;18.45;4.22;;;9.60;99.90;;;;;;5095481;28;20044;-75
2022/01/03 05:53:33;;;;;;;17.85;4.65;;;9.60;99.90;;;;;;5104640;28;20504;-76
2022/01/03 05:56:00;;;;;;;16.20;3.95;;;9.60;99.90;;;;;;5095105;28;20047;-76
2022/01/03 05:58:26;;;;;;;19.15;4.28;;;9.60;99.90;;;;;;5110087;28;20401;-77
2022/01/03 06:00:52;;;;;;;21.35;5.35;;;9.60;99.90;;;;;;5115363;28;20036;-76
2022/01/03 06:03:20;;;;;;;18.10;4.18;;;9.60;99.90;;;;;;5115379;28;20495;-77
2022/01/03 06:06:16;;;;;;;16.40;4.55;;;9.60;99.90;;;;;;5115196;28;20054;-77
2022/01/03 06:08:39;;;;;;;16.48;4.57;;;9.60;99.90;;;;;;5098795;28;20060;-76
2022/01/03 06:11:05;;;;;;;19.58;4.28;;;9.50;99.90;;;;;;5094910;28;20052;-76
2022/01/03 06:13:31;;;;;;;16.77;4.05;;;9.50;99.90;;;;;;5109594;28;20047;-76
2022/01/03 06:15:57;;;;;;;21.88;4.25;;;9.50;99.90;;;;;;5115112;28;20047;-77
2022/01/03 06:18:23;;;;;;;19.65;4.90;;;9.30;99.90;;;;;;5110226;28;20050;-78
2022/01/03 06:20:49;;;;;;;17.38;4.43;;;9.30;99.90;;;;;;5113646;28;20485;-76
2022/01/03 06:23:17;;;;;;;19.27;4.85;;;9.30;99.90;;;;;;5099341;28;20044;-78
2022/01/03 06:25:42;;;;;;;19.98;4.80;;;9.30;99.90;;;;;;5094669;28;20400;-72
2022/01/03 06:28:09;;;;;;;19.63;4.93;;;9.30;99.90;;;;;;5095765;28;20044;-77
2022/01/03 06:30:40;;;;;;;21.80;5.20;;;9.20;99.90;;;;;;5095062;28;20123;-78
2022/01/03 06:33:07;;;;;;;20.48;5.07;;;9.30;99.90;;;;;;5107243;28;20040;-78
2022/01/03 06:35:33;;;;;;;23.52;5.15;;;9.30;99.90;;;;;;5115325;28;20054;-77
2022/01/03 06:38:00;;;;;;;21.15;5.15;;;9.30;99.90;;;;;;5102872;28;20059;-77
2022/01/03 06:40:26;;;;;;;22.73;5.47;;;9.40;99.90;;;;;;5095065;28;20074;-77
2022/01/03 06:42:52;;;;;;;21.67;4.90;;;9.40;99.90;;;;;;5104039;28;20071;-77
2022/01/03 06:45:19;;;;;;;22.90;5.70;;;9.40;99.90;;;;;;5115090;28;20048;-78
2022/01/03 06:47:44;;;;;;;21.67;5.72;;;9.40;99.90;;;;;;5106689;28;20052;-78
2022/01/03 06:50:10;;;;;;;21.23;4.70;;;9.40;99.90;;;;;;5094082;28;20465;-77
2022/01/03 06:52:37;;;;;;;19.45;5.90;;;9.40;99.90;;;;;;5104437;28;20119;-78
2022/01/03 06:55:04;;;;;;;22.73;5.47;;;9.40;99.90;;;;;;5106606;28;20449;-78
2022/01/03 06:57:30;;;;;;;19.58;4.55;;;9.40;99.90;;;;;;5098040;28;20051;-78
2022/01/03 06:59:56;;;;;;;20.70;4.93;;;9.40;99.90;;;;;;5113212;28;20051;-78
2022/01/03 07:02:22;;;;;;;20.20;4.93;;;9.40;99.90;;;;;;5110966;28;20047;-78
2022/01/03 07:04:48;;;;;;;17.00;5.38;;;9.40;99.90;;;;;;5114489;28;20043;-73
2022/01/03 07:07:14;;;;;;;22.52;5.40;;;9.30;99.90;;;;;;5101491;28;20070;-78
2022/01/03 07:09:40;;;;;;;17.42;4.53;;;9.30;99.90;;;;;;5108093;28;20052;-78
2022/01/03 07:12:06;;;;;;;23.83;5.10;;;9.30;99.90;;;;;;5113966;28;20043;-78
2022/01/03 07:19:59;;;;;;;27.67;5.75;;;9.30;99.90;;;;;;5102181;28;20128;-77
2022/01/03 07:22:26;;;;;;;18.55;4.65;;;9.40;99.90;;;;;;5114270;28;20473;-79
2022/01/03 07:24:53;;;;;;;27.63;5.68;;;9.50;99.90;;;;;;5113491;28;20100;-73
2022/01/03 07:27:19;;;;;;;21.20;5.30;;;9.50;99.90;;;;;;5114558;28;20083;-78
2022/01/03 07:29:47;;;;;;;22.45;5.32;;;9.50;99.90;;;;;;5100519;28;20058;-79
2022/01/03 07:32:12;;;;;;;23.08;5.40;;;9.50;99.90;;;;;;5093199;28;20043;-78
2022/01/03 07:34:38;;;;;;;22.55;5.13;;;9.50;99.90;;;;;;5126280;27;20127;-79
2022/01/03 07:37:04;;;;;;;24.27;5.82;;;9.50;99.90;;;;;;5093117;28;20093;-79
2022/01/03 07:39:31;;;;;;;28.80;5.30;;;9.50;99.90;;;;;;5103522;28;20071;-78
2022/01/03 07:41:58;;;;;;;24.33;5.53;;;9.50;99.90;;;;;;5113482;28;20043;-79
2022/01/03 07:44:24;;;;;;;21.33;6.07;;;9.60;99.90;;;;;;5097296;28;20052;-79
2022/01/03 07:46:49;;;;;;;20.98;5.00;;;9.50;99.90;;;;;;5097397;28;20039;-79
2022/01/03 07:49:15;;;;;;;23.63;6.07;;;9.50;99.90;;;;;;5107843;28;20151;-79
2022/01/03 07:51:41;;;;;;;23.02;5.43;;;9.50;99.90;;;;;;5095965;28;20123;-78
2022/01/03 07:54:07;;;;;;;24.48;6.30;;;9.60;99.90;;;;;;5113196;28;20074;-79
2022/01/03 07:56:33;;;;;;;19.83;5.55;;;9.60;99.90;;;;;;5112011;27;20422;-78
2022/01/03 07:58:59;;;;;;;26.48;5.47;;;9.60;99.90;;;;;;5093668;28;20044;-78
2022/01/03 08:01:25;;;;;;;19.02;6.18;;;9.60;99.90;;;;;;5092979;28;20477;-78
2022/01/03 08:03:51;;;;;;;19.35;5.35;;;9.60;99.90;;;;;;5093369;28;20047;-79
2022/01/03 08:06:18;;;;;;;24.77;5.78;;;9.60;99.90;;;;;;5101130;28;20109;-79
2022/01/03 08:08:44;;;;;;;21.27;5.30;;;9.60;99.90;;;;;;5113727;28;20060;-79
2022/01/03 08:11:09;;;;;;;24.02;5.28;;;9.60;99.90;;;;;;5094307;28;20123;-79
2022/01/03 08:13:35;;;;;;;23.85;6.22;;;9.60;99.90;;;;;;5093337;28;20477;-79
2022/01/03 08:16:01;;;;;;;19.20;5.35;;;9.60;99.90;;;;;;5108549;28;20040;-78
2022/01/03 08:18:28;;;;;;;19.85;4.95;;;9.60;99.90;;;;;;5113619;28;20043;-79
2022/01/03 08:20:53;;;;;;;21.17;4.93;;;9.60;99.90;;;;;;5099958;28;20040;-79
2022/01/03 08:23:20;;;;;;;18.00;5.38;;;9.60;99.90;;;;;;5092247;28;20047;-79
2022/01/03 08:25:45;;;;;;;21.17;5.97;;;9.70;99.90;;;;;;5105341;28;20055;-79
2022/01/03 08:28:12;;;;;;;22.00;5.82;;;9.60;99.90;;;;;;5112963;28;20040;-79
2022/01/03 08:30:38;;;;;;;21.25;5.45;;;9.70;99.90;;;;;;5102096;28;20043;-79
2022/01/03 08:33:04;;;;;;;23.05;6.22;;;9.70;99.90;;;;;;5092166;28;20052;-79
2022/01/03 08:35:30;;;;;;;18.60;5.53;;;9.60;99.90;;;;;;5101381;28;20488;-79
2022/01/03 08:37:58;;;;;;;25.90;5.57;;;9.70;99.90;;;;;;5113200;28;20400;-80
2022/01/03 08:40:24;;;;;;;19.48;5.05;;;9.70;99.90;;;;;;5107299;28;20373;-80
2022/01/03 08:42:53;;;;;;;15.88;4.93;;;9.70;99.90;;;;;;5113013;28;20495;-79
2022/01/03 08:45:19;;;;;;;21.50;5.65;;;9.70;99.90;;;;;;5101396;28;20048;-80
2022/01/03 08:47:46;;;;;;;17.13;5.00;;;9.70;99.90;;;;;;5092624;28;20105;-80
2022/01/03 08:50:12;;;;;;;24.25;5.95;;;9.70;99.90;;;;;;5100842;28;20043;-79
2022/01/03 08:52:38;;;;;;;20.77;5.15;;;9.70;99.90;;;;;;5111791;28;20499;-77
2022/01/03 08:55:05;;;;;;;18.42;4.97;;;9.80;99.90;;;;;;5103629;28;20047;-73
2022/01/03 08:57:31;;;;;;;18.67;5.32;;;9.80;99.90;;;;;;5092476;28;20516;-80
2022/01/03 08:59:56;;;;;;;18.40;4.97;;;9.80;99.90;;;;;;5097855;28;20040;-79
2022/01/03 09:02:22;;;;;;;17.02;4.85;;;9.80;99.90;;;;;;5096152;28;20059;-79
2022/01/03 09:04:48;;;;;;;17.95;4.53;;;9.80;99.90;;;;;;5093481;28;20044;-79
2022/01/03 09:07:14;;;;;;;19.63;5.00;;;9.80;99.90;;;;;;5104703;28;20055;-79
2022/01/03 09:09:40;;;;;;;17.80;4.35;;;9.80;99.90;;;;;;5107689;28;20047;-79
2022/01/03 09:12:07;;;;;;;17.70;5.03;;;9.90;99.90;;;;;;5101276;28;20055;-72
2022/01/03 09:14:34;;;;;;;16.90;4.70;;;9.90;99.90;;;;;;5107872;28;20400;-80
2022/01/03 09:17:00;;;;;;;18.80;4.30;;;9.90;99.90;;;;;;5093559;28;20497;-78
2022/01/03 09:19:26;;;;;;;19.02;4.65;;;9.90;99.90;;;;;;5090948;28;20161;-80
2022/01/03 09:21:59;;;;;;;19.98;4.63;;;9.90;99.90;;;;;;5092019;28;20389;-80
2022/01/03 09:24:42;;;;;;;16.35;5.20;;;10.00;99.90;;;;;;5093277;28;20048;-80
2022/01/03 09:29:54;;;;;;;19.48;5.32;;;10.00;99.90;;;;;;5110812;28;20132;-79
2022/01/03 09:32:20;;;;;;;21.10;5.47;;;10.00;99.90;;;;;;5112555;28;20090;-80
2022/01/03 09:34:46;;;;;;;17.50;5.03;;;10.00;99.90;;;;;;5109115;28;20040;-79
2022/01/03 09:37:12;;;;;;;18.10;4.30;;;10.00;99.90;;;;;;5099181;28;20487;-78
2022/01/03 09:39:38;;;;;;;21.42;4.57;;;10.00;99.90;;;;;;5115608;28;20388;-80
2022/01/03 09:42:07;;;;;;;14.63;4.55;;;10.10;99.90;;;;;;5114450;28;20043;-80
2022/01/03 09:44:35;;;;;;;23.05;4.75;;;10.10;99.90;;;;;;5116139;28;20065;-80
2022/01/03 09:47:04;;;;;;;17.90;4.25;;;10.10;99.90;;;;;;5104637;28;20047;-80
2022/01/03 09:49:38;;;;;;;17.55;4.65;;;10.10;99.90;;;;;;5099457;28;20054;-80
2022/01/03 09:52:06;;;;;;;21.65;4.68;;;10.10;99.90;;;;;;5104913;28;20051;-80
2022/01/03 09:54:32;;;;;;;15.73;4.03;;;10.10;99.90;;;;;;5090891;28;20120;-79
2022/01/03 09:57:02;;;;;;;15.98;4.10;;;10.10;99.90;;;;;;5096227;28;20101;-80
2022/01/03 09:59:29;;;;;;;19.45;4.90;;;10.20;99.90;;;;;;5102306;28;20044;-79
2022/01/03 10:01:56;;;;;;;14.65;4.25;;;10.10;99.90;;;;;;5115906;28;20123;-80
2022/01/03 10:04:23;;;;;;;16.67;4.68;;;10.20;99.90;;;;;;5113484;28;20047;-79
2022/01/03 10:06:49;;;;;;;16.15;4.53;;;10.10;99.90;;;;;;5115624;28;20043;-79
2022/01/03 10:09:18;;;;;;;16.60;4.30;;;10.20;99.90;;;;;;5101033;28;20052;-75
2022/01/03 10:11:44;;;;;;;16.92;4.20;;;10.20;99.90;;;;;;5094033;28;20097;-79
2022/01/03 10:14:11;;;;;;;17.40;5.10;;;10.20;99.90;;;;;;5105223;28;20036;-79
2022/01/03 10:16:38;;;;;;;16.30;3.63;;;10.30;99.90;;;;;;5093360;28;20051;-79
2022/01/03 10:19:04;;;;;;;18.52;4.50;;;10.30;99.90;;;;;;5093898;28;20103;-79
2022/01/03 10:21:36;;;;;;;14.50;4.03;;;10.30;99.90;;;;;;5103022;28;20448;-79
2022/01/03 10:24:02;;;;;;;13.15;3.78;;;10.30;99.90;;;;;;5101795;28;20044;-79
2022/01/03 10:26:27;;;;;;;13.38;4.20;;;10.30;99.90;;;;;;5094540;28;20362;-74
2022/01/03 10:29:20;;;;;;;15.15;4.20;;;10.30;99.90;;;;;;5098916;28;20048;-79
2022/01/03 10:31:51;;;;;;;16.00;4.15;;;10.30;99.90;;;;;;5093630;28;20048;-79
2022/01/03 10:34:19;;;;;;;12.85;3.67;;;10.40;99.90;;;;;;5093818;28;20115;-73
2022/01/03 10:36:47;;;;;;;14.57;3.63;;;10.40;99.90;;;;;;5094925;28;20131;-79
2022/01/03 10:39:25;;;;;;;15.07;4.22;;;10.40;99.90;;;;;;5094827;28;20105;-78
2022/01/03 10:42:11;;;;;;;16.13;3.88;;;10.50;99.90;;;;;;5094855;28;20048;-79
2022/01/03 10:44:40;;;;;;;18.73;3.75;;;10.50;99.90;;;;;;5092890;28;20048;-79
2022/01/03 10:47:13;;;;;;;18.58;4.18;;;10.60;99.90;;;;;;5094799;28;20113;-80
2022/01/03 10:49:40;;;;;;;16.25;4.10;;;10.60;99.90;;;;;;5092937;28;20052;-79
2022/01/03 10:52:22;;;;;;;16.23;3.53;;;10.60;99.90;;;;;;5094539;28;20516;-80
2022/01/03 10:55:09;;;;;;;16.88;4.20;;;10.60;99.90;;;;;;5099847;28;20040;-80
2022/01/03 10:57:53;;;;;;;14.70;3.88;;;10.60;99.90;;;;;;5107725;28;20063;-79
2022/01/03 11:00:23;;;;;;;14.10;3.63;;;10.70;99.90;;;;;;5093893;28;20051;-74
2022/01/03 11:11:46;;;;;;;15.50;3.97;;;10.70;99.90;;;;;;5091412;28;20048;-80
2022/01/03 11:14:31;;;;;;;17.33;3.63;;;10.70;99.90;;;;;;5089541;28;20115;-75
2022/01/03 11:16:57;;;;;;;17.08;4.15;;;10.70;99.90;;;;;;5100293;28;20069;-77
2022/01/03 11:19:39;;;;;;;15.75;3.45;;;10.80;99.90;;;;;;5104729;28;20602;-74
2022/01/03 11:22:05;;;;;;;16.75;3.45;;;10.80;99.90;;;;;;5096109;28;20075;-76
2022/01/03 11:24:31;;;;;;;14.25;3.78;;;10.80;99.90;;;;;;5110638;28;20085;-79
2022/01/03 11:26:58;;;;;;;16.45;4.47;;;10.80;99.90;;;;;;5102839;28;20448;-80
2022/01/03 11:29:28;;;;;;;13.45;4.40;;;10.80;99.90;;;;;;5095738;28;20256;-74
2022/01/03 11:31:54;;;;;;;14.57;3.95;;;10.90;99.90;;;;;;5090887;28;20425;-81
2022/01/03 11:34:24;;;;;;;15.73;3.53;;;10.90;99.90;;;;;;5091422;28;20048;-80
2022/01/03 11:36:50;;;;;;;19.20;4.30;;;11.00;99.90;;;;;;5110351;28;20051;-77
2022/01/03 11:39:20;;;;;;;12.45;3.42;;;11.00;99.90;;;;;;5106714;28;20043;-80
2022/01/03 11:41:46;;;;;;;13.68;3.95;;;11.00;99.90;;;;;;5075204;28;20102;-78
2022/01/03 11:44:15;;;;;;;16.75;4.20;;;11.10;99.90;;;;;;5110290;28;20035;-73
2022/01/03 11:46:42;;;;;;;16.80;4.10;;;11.10;99.90;;;;;;5091089;28;20127;-80
2022/01/03 11:49:09;;;;;;;13.52;4.15;;;11.00;99.90;;;;;;5091733;28;20047;-80
2022/01/03 11:51:36;;;;;;;19.02;4.75;;;11.00;99.90;;;;;;5106435;28;20071;-76
2022/01/03 11:54:04;;;;;;;16.52;3.92;;;10.90;99.90;;;;;;5091615;28;20413;-80
2022/01/03 11:56:32;;;;;;;14.77;4.10;;;10.80;99.90;;;;;;5088814;28;20040;-79
2022/01/03 12:04:35;;;;;;;12.30;4.00;;;10.80;99.90;;;;;;5069535;28;20051;-78
2022/01/03 12:07:16;;;;;;;14.60;3.70;;;10.80;99.90;;;;;;5069575;28;20052;-78
2022/01/03 12:09:50;;;;;;;17.42;3.97;;;10.80;99.90;;;;;;5101918;28;20064;-74
2022/01/03 12:12:34;;;;;;;14.15;4.00;;;10.90;99.90;;;;;;5088415;28;20044;-80
2022/01/03 12:15:03;;;;;;;15.25;3.83;;;10.80;99.90;;;;;;5069514;28;20049;-81
2022/01/03 12:17:45;;;;;;;15.00;4.07;;;10.90;99.90;;;;;;5074318;28;20048;-74
2022/01/03 12:20:11;;;;;;;13.27;4.25;;;10.80;99.90;;;;;;5110575;28;20035;-80
2022/01/03 12:22:50;;;;;;;14.27;4.40;;;10.80;99.90;;;;;;5106381;27;20122;-79
2022/01/03 12:25:30;;;;;;;15.63;4.15;;;10.90;99.90;;;;;;5090359;28;20052;-81
2022/01/03 12:27:58;;;;;;;15.50;3.83;;;10.80;99.90;;;;;;5093577;28;20040;-79
2022/01/03 12:30:32;;;;;;;16.23;3.75;;;10.80;99.90;;;;;;5110293;28;20138;-79
2022/01/03 12:33:07;;;;;;;17.67;4.10;;;10.90;99.90;;;;;;5103341;28;20048;-74
2022/01/03 12:35:38;;;;;;;19.75;3.97;;;10.90;99.90;;;;;;5088279;28;20054;-80
2022/01/03 12:38:04;;;;;;;17.63;4.65;;;10.90;99.90;;;;;;5095289;28;20119;-75
2022/01/03 12:40:33;;;;;;;15.60;3.70;;;10.90;99.90;;;;;;5109682;28;20074;-73
2022/01/03 12:43:11;;;;;;;15.10;3.45;;;10.80;99.90;;;;;;5104204;28;20050;-82
2022/01/03 12:45:37;;;;;;;14.98;3.97;;;10.80;99.90;;;;;;5096213;28;20077;-81
2022/01/03 12:48:11;;;;;;;14.55;3.92;;;10.80;99.90;;;;;;5104964;28;20564;-81
2022/01/03 12:50:42;;;;;;;17.10;4.13;;;10.80;99.90;;;;;;5103053;28;20042;-83
2022/01/03 12:53:13;;;;;;;18.42;3.85;;;10.70;99.90;;;;;;5089739;28;20039;-82
2022/01/03 12:55:40;;;;;;;12.27;3.55;;;10.70;99.90;;;;;;5088930;28;20048;-79
2022/01/03 12:58:14;;;;;;;14.10;4.07;;;10.60;99.90;;;;;;5089329;28;20130;-80
2022/01/03 13:00:43;;;;;;;15.18;4.15;;;10.70;99.90;;;;;;5096670;28;20093;-77
2022/01/03 13:03:29;;;;;;;15.68;4.38;;;10.60;99.90;;;;;;5100860;28;20040;-81
2022/01/03 13:06:11;;;;;;;14.85;3.47;;;10.70;99.90;;;;;;5096269;28;20048;-80
2022/01/03 13:08:43;;;;;;;18.67;4.50;;;10.80;99.90;;;;;;5108772;28;20062;-78
2022/01/03 13:11:11;;;;;;;11.95;4.65;;;10.80;99.90;;;;;;5103571;28;20060;-81
2022/01/03 13:13:40;;;;;;;15.18;3.85;;;10.80;99.90;;;;;;5110558;28;20050;-80
2022/01/03 13:16:22;;;;;;;16.33;4.32;;;10.70;99.90;;;;;;5105191;28;20076;-79